Time;durP1;ratioP1;P1;durP2;ratioP2;P2;SDS_P1;SDS_P2;PMS_P1;PMS_P2;Temp;Humidity;BMP_temperature;BMP_pressure;BME280_temperature;BME280_humidity;BME280_pressure;Samples;Min_cycle;Max_cycle;Signal;HPM_P1;HPM_P2
2021/04/12 00:01:14;;;;;;;10.02;3.05;;;;;;;5.33;59.68;102072.75;4972993;28;20159;-68
2021/04/12 00:03:57;;;;;;;8.75;2.88;;;;;;;5.11;60.63;102069.09;4972546;28;20058;-71
2021/04/12 00:06:59;;;;;;;10.52;3.63;;;;;;;5.39;60.32;102071.75;4973397;28;20190;-71
2021/04/12 00:09:55;;;;;;;6.18;2.83;;;;;;;5.21;60.27;102074.72;4992247;28;20054;-68
2021/04/12 00:12:29;;;;;;;11.45;3.28;;;;;;;5.12;60.73;102078.91;5044637;28;20059;-75
2021/04/12 00:15:07;;;;;;;6.20;3.03;;;;;;;5.16;60.64;102080.91;5019585;28;20399;-75
2021/04/12 00:17:42;;;;;;;10.60;3.10;;;;;;;5.60;59.66;102080.09;5052573;28;20511;-73
2021/04/12 00:25:02;;;;;;;8.15;3.25;;;;;;;5.48;59.54;102087.53;5052676;28;20407;-76
2021/04/12 00:27:43;;;;;;;9.18;3.63;;;;;;;5.28;60.60;102098.06;5034247;28;20060;-67
2021/04/12 00:30:28;;;;;;;8.45;3.25;;;;;;;5.82;59.16;102099.31;5035827;28;20372;-71
2021/04/12 00:33:09;;;;;;;8.45;3.20;;;;;;;5.75;59.61;102101.38;5036312;28;20041;-69
2021/04/12 00:40:19;;;;;;;6.95;3.10;;;;;;;5.42;60.02;102093.16;5051824;28;20044;-74
2021/04/12 00:43:23;;;;;;;8.30;3.08;;;;;;;5.31;60.60;102089.41;5019415;28;20399;-72
2021/04/12 00:46:08;;;;;;;9.40;3.80;;;;;;;5.16;61.49;102093.75;5035567;28;20045;-72
2021/04/12 00:48:40;;;;;;;;;;;;;;;5.41;60.54;102092.31;5020432;28;20371;-72
2021/04/12 00:51:29;;;;;;;7.15;3.17;;;;;;;5.69;59.54;102091.44;5033636;28;19920;-68
2021/04/12 00:54:20;;;;;;;10.10;3.72;;;;;;;5.43;60.33;102100.25;5035259;28;20068;-66
2021/04/12 00:57:26;;;;;;;11.27;3.80;;;;;;;5.59;59.90;102102.19;5051231;28;20140;-71
2021/04/12 01:00:43;;;;;;;12.55;3.90;;;;;;;5.61;60.27;102095.38;5010838;28;20412;-68
2021/04/12 01:03:45;;;;;;;8.35;3.25;;;;;;;5.56;60.55;102099.97;5011744;28;20058;-69
2021/04/12 01:07:19;;;;;;;8.38;3.75;;;;;;;5.79;60.39;102105.25;5010422;28;20057;-69
2021/04/12 01:10:10;;;;;;;8.90;3.75;;;;;;;5.64;60.22;102102.28;4976018;28;20051;-67
2021/04/12 01:12:43;;;;;;;7.47;3.30;;;;;;;5.52;60.57;102102.34;4958759;28;20433;-75
2021/04/12 01:15:35;;;;;;;9.60;3.70;;;;;;;5.56;60.67;102106.25;4990732;28;20054;-69
2021/04/12 01:18:26;;;;;;;10.23;4.03;;;;;;;5.47;60.53;102113.16;4990618;28;20190;-65
2021/04/12 01:25:48;;;;;;;10.15;3.97;;;;;;;5.20;61.56;102114.03;4990306;28;20483;-65
2021/04/12 01:28:43;;;;;;;11.10;4.00;;;;;;;5.21;61.96;102116.50;4990214;28;20046;-68
2021/04/12 01:31:43;;;;;;;9.15;3.75;;;;;;;5.34;61.61;102112.66;4990038;28;20068;-62
2021/04/12 01:34:38;;;;;;;8.80;4.28;;;;;;;5.25;61.73;102117.69;4991460;28;20150;-69
2021/04/12 01:41:12;;;;;;;11.05;4.57;;;;;;;5.48;61.13;102116.75;5032467;28;20053;-76
2021/04/12 01:44:05;;;;;;;10.07;4.22;;;;;;;5.61;61.14;102120.00;5014822;28;20350;-73
2021/04/12 01:47:21;;;;;;;8.68;4.28;;;;;;;5.48;61.02;102133.13;5014612;28;20060;-71
2021/04/12 01:50:27;;;;;;;10.50;4.45;;;;;;;5.45;61.10;102136.38;4989797;28;20402;-68
2021/04/12 01:57:16;;;;;;;7.03;3.97;;;;;;;5.19;62.07;102139.69;4913793;29;20460;-69
2021/04/12 01:59:53;;;;;;;9.23;4.25;;;;;;;5.27;62.01;102139.28;4913687;29;20055;-70
2021/04/12 02:02:20;;;;;;;11.73;4.45;;;;;;;5.32;61.73;102142.13;4913812;29;20063;-69
2021/04/12 02:05:08;;;;;;;11.25;4.38;;;;;;;5.18;62.36;102138.84;4913738;29;20071;-66
2021/04/12 02:11:55;;;;;;;12.87;4.77;;;;;;;5.09;62.30;102151.22;4935884;29;20051;-71
2021/04/12 02:14:24;;;;;;;12.27;4.78;;;;;;;5.03;62.72;102154.94;4936389;29;20051;-69
2021/04/12 02:16:57;;;;;;;9.73;4.40;;;;;;;5.24;62.03;102153.44;4936288;29;20091;-74
2021/04/12 02:20:00;;;;;;;10.52;4.95;;;;;;;5.05;62.55;102162.88;4935831;29;20047;-73
2021/04/12 02:26:38;;;;;;;9.75;5.00;;;;;;;5.35;62.00;102161.59;4922213;28;20051;-72
2021/04/12 02:29:17;;;;;;;12.50;4.75;;;;;;;5.14;63.00;102161.44;4958642;28;20051;-68
2021/04/12 02:32:05;;;;;;;11.87;5.30;;;;;;;5.64;61.60;102167.88;4942257;28;20054;-71
2021/04/12 02:34:40;;;;;;;12.55;5.35;;;;;;;5.28;62.24;102173.75;4958428;28;20375;-71
2021/04/12 02:41:45;;;;;;;10.23;5.82;;;;;;;4.56;65.27;102184.22;4974059;28;20047;-70
2021/04/12 02:44:34;;;;;;;11.85;6.00;;;;;;;4.72;64.88;102179.94;4973771;28;20055;-72
2021/04/12 02:47:37;;;;;;;9.82;5.68;;;;;;;4.85;64.89;102184.28;4957887;28;20158;-70
2021/04/12 02:50:18;;;;;;;12.23;6.07;;;;;;;4.44;65.87;102172.47;4957419;28;20055;-67
2021/04/12 02:52:45;;;;;;;14.75;6.45;;;;;;;4.43;66.07;102189.91;4958597;28;20089;-68
2021/04/12 02:55:35;;;;;;;13.40;7.00;;;;;;;4.48;66.33;102189.22;4974325;28;20049;-70
2021/04/12 02:58:27;;;;;;;11.38;6.45;;;;;;;4.64;66.30;102191.19;4995021;28;20114;-66
2021/04/12 03:01:19;;;;;;;14.80;6.88;;;;;;;4.89;64.89;102189.03;5055007;28;20044;-69
2021/04/12 03:04:16;;;;;;;14.30;7.25;;;;;;;4.80;65.18;102181.44;5054129;28;20399;-74
2021/04/12 03:10:47;;;;;;;14.05;6.75;;;;;;;4.83;65.21;102189.19;5054749;28;20047;-69
2021/04/12 03:13:51;;;;;;;16.33;7.30;;;;;;;4.47;65.93;102190.25;5037171;28;20049;-75
2021/04/12 03:16:22;;;;;;;14.82;7.32;;;;;;;4.73;65.83;102194.38;5036887;28;20052;-74
2021/04/12 03:18:58;;;;;;;12.20;7.72;;;;;;;4.69;66.18;102187.75;5037161;28;20053;-73
2021/04/12 03:21:33;;;;;;;20.15;7.50;;;;;;;4.58;66.25;102195.69;5054668;28;20404;-71
2021/04/12 03:24:21;;;;;;;14.18;7.85;;;;;;;4.08;67.91;102185.50;5054984;28;20053;-74
2021/04/12 03:27:36;;;;;;;16.00;8.10;;;;;;;4.29;67.95;102191.19;5054952;28;20060;-73
2021/04/12 03:30:33;;;;;;;15.95;7.45;;;;;;;4.51;67.22;102184.09;4993390;28;20046;-70
2021/04/12 03:33:14;;;;;;;13.70;7.18;;;;;;;4.93;65.72;102178.47;4993621;28;20066;-75
2021/04/12 03:35:56;;;;;;;14.80;7.78;;;;;;;4.80;66.03;102185.00;4992016;28;20050;-71
2021/04/12 03:43:22;;;;;;;13.40;7.60;;;;;;;5.22;65.01;102186.47;4991869;28;20149;-72
2021/04/12 03:46:03;;;;;;;17.63;7.85;;;;;;;5.02;65.30;102190.69;4992276;28;20054;-70
2021/04/12 03:48:45;;;;;;;14.10;7.40;;;;;;;5.07;65.58;102180.69;4992544;28;20058;-70
2021/04/12 03:51:21;;;;;;;17.90;7.68;;;;;;;5.21;64.99;102179.31;4976611;28;20086;-75
2021/04/12 03:54:23;;;;;;;11.77;7.60;;;;;;;4.88;65.34;102183.81;4977334;28;20054;-74
2021/04/12 03:57:02;;;;;;;13.88;8.00;;;;;;;4.81;66.17;102189.41;4980405;28;20062;-73
2021/04/12 03:59:47;;;;;;;11.88;7.50;;;;;;;4.60;66.45;102192.75;4993604;28;20161;-75
2021/04/12 04:02:24;;;;;;;15.35;7.82;;;;;;;5.10;65.44;102191.13;4991859;28;20510;-71
2021/04/12 04:05:28;;;;;;;14.90;7.57;;;;;;;4.98;65.15;102187.59;4992446;28;20057;-67
2021/04/12 04:12:27;;;;;;;12.20;7.57;;;;;;;4.62;67.15;102200.69;5033705;28;20402;-78
2021/04/12 04:15:29;;;;;;;13.75;8.23;;;;;;;4.79;66.44;102196.19;5032566;28;20488;-67
2021/04/12 04:18:17;;;;;;;14.38;7.57;;;;;;;4.73;66.35;102197.94;5016402;28;20054;-68
2021/04/12 04:21:18;;;;;;;17.95;7.90;;;;;;;4.79;66.48;102204.38;5032656;28;20489;-74
2021/04/12 04:28:29;;;;;;;18.48;8.48;;;;;;;4.13;68.25;102201.97;5033633;28;20045;-72
2021/04/12 04:31:27;;;;;;;16.70;8.38;;;;;;;4.39;68.05;102209.72;5014457;28;20060;-66
2021/04/12 04:34:14;;;;;;;12.40;7.70;;;;;;;4.65;67.10;102209.25;5017629;28;20057;-74
2021/04/12 04:37:07;;;;;;;14.32;7.60;;;;;;;4.46;67.32;102219.44;5015945;28;20049;-72
2021/04/12 04:43:50;;;;;;;15.70;7.65;;;;;;;4.28;67.82;102229.63;5025991;28;20049;-73
2021/04/12 04:46:33;;;;;;;18.13;9.30;;;;;;;4.50;67.48;102228.81;5029887;28;20495;-67
2021/04/12 04:49:39;;;;;;;12.57;7.60;;;;;;;4.69;66.87;102234.16;5032460;28;20052;-69
2021/04/12 04:52:25;;;;;;;15.68;8.27;;;;;;;4.71;66.56;102237.50;5032963;28;20049;-73
2021/04/12 04:59:38;;;;;;;17.63;8.00;;;;;;;4.54;66.88;102238.19;5033267;28;20045;-73
2021/04/12 05:02:27;;;;;;;14.40;9.00;;;;;;;4.49;67.08;102248.16;5031892;28;20046;-68
2021/04/12 05:05:19;;;;;;;18.58;8.68;;;;;;;4.22;67.87;102250.47;4998513;28;20056;-71
2021/04/12 05:12:45;;;;;;;17.02;8.73;;;;;;;4.61;67.00;102259.91;5032316;28;20472;-69
2021/04/12 05:15:20;;;;;;;14.13;9.85;;;;;;;4.27;67.79;102269.69;5031993;28;20061;-72
2021/04/12 05:18:12;;;;;;;16.33;9.00;;;;;;;4.29;68.12;102270.28;5032429;28;20048;-70
2021/04/12 05:20:58;;;;;;;16.17;9.43;;;;;;;4.05;68.87;102271.31;5032233;28;20432;-71
2021/04/12 05:27:57;;;;;;;15.27;9.30;;;;;;;4.44;68.39;102273.41;5032118;28;20053;-71
2021/04/12 05:30:37;;;;;;;24.17;11.70;;;;;;;4.18;68.46;102281.19;5032613;28;20061;-66
2021/04/12 05:33:24;;;;;;;21.08;11.57;;;;;;;4.58;68.15;102290.41;5032736;28;20358;-66
2021/04/12 05:36:15;;;;;;;17.65;9.95;;;;;;;4.38;67.97;102287.97;5030464;28;20049;-66
2021/04/12 05:43:37;;;;;;;17.55;10.32;;;;;;;4.68;67.09;102304.28;5035092;28;20046;-70
2021/04/12 05:46:22;;;;;;;19.17;10.98;;;;;;;4.58;67.05;102304.84;5018318;28;20075;-74
2021/04/12 05:49:10;;;;;;;17.48;10.55;;;;;;;4.51;67.69;102312.34;5036624;28;20048;-72
2021/04/12 05:51:52;;;;;;;23.45;10.85;;;;;;;4.52;67.42;102315.88;5036288;28;20053;-76
2021/04/12 05:54:27;;;;;;;19.25;11.00;;;;;;;4.42;67.94;102321.09;5036965;28;20045;-76
2021/04/12 05:57:25;;;;;;;17.58;11.07;;;;;;;4.22;68.38;102324.09;5019248;28;20050;-72
2021/04/12 06:00:04;;;;;;;17.92;11.23;;;;;;;4.11;69.13;102322.19;5002004;28;20060;-72
2021/04/12 06:03:20;;;;;;;18.63;11.47;;;;;;;4.13;69.29;102314.59;5037391;28;20053;-74
2021/04/12 06:06:34;;;;;;;17.08;10.27;;;;;;;4.64;68.14;102329.56;4979462;28;20057;-77
2021/04/12 06:10:12;;;;;;;22.48;11.90;;;;;;;4.41;68.04;102322.97;4994745;28;20509;-71
2021/04/12 06:12:51;;;;;;;25.00;11.43;;;;;;;4.39;68.79;102332.47;4975472;28;20061;-72
2021/04/12 06:15:48;;;;;;;18.70;10.88;;;;;;;4.84;67.27;102328.16;4975329;28;20501;-75
2021/04/12 06:18:36;;;;;;;19.95;10.75;;;;;;;4.91;66.92;102326.16;4976925;28;20059;-76
2021/04/12 06:21:44;;;;;;;20.95;12.63;;;;;;;4.60;67.42;102326.47;4959299;28;20142;-76
2021/04/12 06:28:20;;;;;;;18.75;11.35;;;;;;;4.79;67.72;102330.75;4974032;28;20558;-75
2021/04/12 06:31:24;;;;;;;18.60;11.27;;;;;;;4.78;67.89;102325.53;4974864;28;20062;-76
2021/04/12 06:33:53;;;;;;;20.38;11.15;;;;;;;4.92;66.90;102330.53;4975011;28;20510;-76
2021/04/12 06:36:32;;;;;;;15.93;11.23;;;;;;;4.92;67.31;102321.50;4973319;28;20150;-72
2021/04/12 06:44:12;;;;;;;20.52;11.18;;;;;;;5.40;66.15;102335.72;5029630;28;20056;-76
2021/04/12 06:46:48;;;;;;;19.52;11.45;;;;;;;5.48;65.89;102343.56;5035595;28;20049;-73
2021/04/12 06:50:01;;;;;;;18.67;10.93;;;;;;;5.21;66.37;102340.47;5035270;28;20057;-73
2021/04/12 06:52:48;;;;;;;19.00;10.98;;;;;;;5.11;66.90;102337.53;5034879;28;20065;-68
2021/04/12 07:00:30;;;;;;;22.40;12.32;;;;;;;5.42;66.66;102336.34;5035332;28;20441;-73
2021/04/12 07:03:41;;;;;;;22.50;11.27;;;;;;;5.68;65.33;102344.81;4974477;28;20047;-72
2021/04/12 07:06:44;;;;;;;19.33;11.73;;;;;;;5.80;64.96;102341.22;4944862;28;20061;-71
2021/04/12 07:13:59;;;;;;;24.48;11.98;;;;;;;5.90;64.62;102357.88;4990106;28;20065;-71
2021/04/12 07:16:51;;;;;;;21.00;11.70;;;;;;;6.02;64.38;102356.75;4974262;28;20055;-68
2021/04/12 07:19:29;;;;;;;23.73;11.73;;;;;;;6.05;64.18;102360.91;4974260;28;20051;-75
2021/04/12 07:22:22;;;;;;;22.42;11.10;;;;;;;6.13;64.88;102358.63;4975300;28;20054;-70
2021/04/12 07:29:24;;;;;;;22.02;11.43;;;;;;;6.19;66.60;102368.56;4972661;28;20047;-75
2021/04/12 07:32:15;;;;;;;19.17;11.85;;;;;;;6.31;63.99;102363.88;4969096;28;20062;-68
2021/04/12 07:35:35;;;;;;;19.48;10.98;;;;;;;6.47;63.30;102362.25;4957072;28;20054;-67
2021/04/12 07:38:57;;;;;;;19.33;10.57;;;;;;;6.54;63.08;102371.16;4919717;28;20161;-69
2021/04/12 07:41:45;;;;;;;16.27;10.75;;;;;;;6.53;63.85;102374.97;4934441;28;20051;-71
2021/04/12 07:44:47;;;;;;;20.67;10.85;;;;;;;6.47;63.33;102370.47;4936226;29;20480;-70
2021/04/12 07:47:41;;;;;;;17.25;10.82;;;;;;;6.71;62.58;102361.88;4923403;28;20153;-70
2021/04/12 07:50:36;;;;;;;19.80;10.50;;;;;;;6.86;62.23;102369.53;4937311;29;20062;-66
2021/04/12 07:53:38;;;;;;;20.20;9.93;;;;;;;6.77;62.70;102373.75;4937949;29;20052;-63
2021/04/12 08:00:53;;;;;;;26.08;10.80;;;;;;;7.25;64.94;102373.16;4940656;29;20188;-70
2021/04/12 08:04:23;;;;;;;16.40;10.15;;;;;;;7.36;62.20;102367.56;4933880;28;20060;-69
2021/04/12 08:07:07;;;;;;;17.80;10.18;;;;;;;7.35;60.79;102370.56;4948070;29;20071;-72
2021/04/12 08:14:03;;;;;;;15.40;9.80;;;;;;;7.72;59.80;102372.47;4942402;28;20467;-71
2021/04/12 08:16:58;;;;;;;19.48;10.88;;;;;;;7.56;58.40;102372.53;4976292;28;20066;-68
2021/04/12 08:19:37;;;;;;;17.98;9.60;;;;;;;7.88;60.31;102374.31;5053053;28;20061;-70
2021/04/12 08:22:46;;;;;;;14.10;9.43;;;;;;;8.18;58.16;102379.34;5053862;28;20060;-73
2021/04/12 08:30:16;;;;;;;18.15;8.77;;;;;;;8.05;59.32;102382.50;5052669;28;20052;-70
2021/04/12 08:33:10;;;;;;;17.90;8.85;;;;;;;8.16;57.95;102381.50;5053292;28;20476;-69
2021/04/12 08:36:11;;;;;;;15.23;8.15;;;;;;;7.84;55.83;102388.81;5052789;28;20122;-72
2021/04/12 08:39:19;;;;;;;19.23;8.75;;;;;;;7.61;58.16;102392.63;5052826;28;20053;-76
2021/04/12 08:42:22;;;;;;;16.95;8.07;;;;;;;7.71;56.82;102390.00;5043707;28;20057;-72
2021/04/12 08:44:55;;;;;;;14.13;7.30;;;;;;;7.95;56.28;102387.84;5054493;28;20392;-74
2021/04/12 08:47:43;;;;;;;17.13;8.55;;;;;;;7.76;55.89;102390.06;5035602;28;20449;-69
2021/04/12 08:50:22;;;;;;;11.68;7.35;;;;;;;7.96;55.64;102392.25;5038387;28;20052;-76
2021/04/12 08:53:07;;;;;;;13.70;7.55;;;;;;;8.09;55.12;102393.81;5039232;28;20059;-70
2021/04/12 09:00:38;;;;;;;14.40;7.30;;;;;;;8.02;51.95;102398.66;5049954;28;20041;-74
2021/04/12 09:03:42;;;;;;;13.18;7.78;;;;;;;7.92;53.93;102402.09;5051500;28;20053;-71
2021/04/12 09:06:30;;;;;;;15.68;8.25;;;;;;;7.77;54.95;102404.63;5049643;28;20045;-70
2021/04/12 09:09:11;;;;;;;15.73;7.55;;;;;;;8.16;55.17;102408.16;5050976;28;20068;-71
2021/04/12 09:11:43;;;;;;;;;;;;;;;8.11;53.92;102400.66;5051780;28;20060;-75
2021/04/12 09:14:28;;;;;;;12.00;7.60;;;;;;;8.42;53.33;102410.13;5051932;28;19921;-75
2021/04/12 09:17:11;;;;;;;11.43;6.50;;;;;;;8.02;50.79;102420.59;5032556;28;20484;-73
2021/04/12 09:20:19;;;;;;;13.38;7.13;;;;;;;7.55;52.85;102412.00;5034910;28;20060;-72
2021/04/12 09:23:07;;;;;;;14.48;7.78;;;;;;;7.57;52.65;102421.63;5034995;28;20048;-71
2021/04/12 09:25:52;;;;;;;13.25;6.88;;;;;;;7.49;51.56;102415.75;5051617;28;20472;-68
2021/04/12 09:28:25;;;;;;;12.02;6.93;;;;;;;7.51;52.36;102414.44;5050822;28;20053;-75
2021/04/12 09:31:26;;;;;;;10.88;7.13;;;;;;;7.98;52.19;102414.78;5050176;28;20406;-76
2021/04/12 09:34:28;;;;;;;15.10;7.30;;;;;;;7.89;51.55;102422.63;5050169;28;20048;-76
2021/04/12 09:37:20;;;;;;;13.20;6.88;;;;;;;7.97;50.04;102430.41;5033117;28;20068;-65
2021/04/12 09:39:51;;;;;;;14.98;6.45;;;;;;;7.86;50.11;102427.81;5051174;28;20049;-69
2021/04/12 09:47:05;;;;;;;15.57;7.57;;;;;;;8.88;49.29;102420.47;5051855;28;20396;-68
2021/04/12 09:49:40;;;;;;;11.20;6.68;;;;;;;8.99;50.72;102420.34;5033788;28;20593;-69
2021/04/12 09:52:52;;;;;;;9.30;6.25;;;;;;;9.29;49.95;102414.25;5051420;28;20040;-69
2021/04/12 09:56:12;;;;;;;10.77;5.87;;;;;;;9.05;47.52;102422.03;5034866;28;20045;-73
2021/04/12 09:58:57;;;;;;;11.00;5.97;;;;;;;8.66;47.33;102423.31;5010182;28;20057;-72
2021/04/12 10:02:01;;;;;;;11.52;6.53;;;;;;;9.05;46.86;102421.19;5009101;28;20057;-70
2021/04/12 10:04:44;;;;;;;15.45;6.50;;;;;;;9.24;46.49;102425.19;5009749;28;20489;-73
2021/04/12 10:07:18;;;;;;;11.27;6.00;;;;;;;9.15;45.05;102412.22;5011784;28;20049;-76
2021/04/12 10:10:02;;;;;;;9.90;6.00;;;;;;;8.48;45.54;102426.41;4996164;28;20058;-74
2021/04/12 10:16:54;;;;;;;9.90;6.15;;;;;;;8.66;47.26;102414.22;4990444;28;20054;-68
2021/04/12 10:19:23;;;;;;;10.90;5.57;;;;;;;9.34;47.62;102416.19;4974447;28;20057;-68
2021/04/12 10:21:57;;;;;;;10.65;6.15;;;;;;;9.53;45.79;102411.94;4974076;28;20146;-69
2021/04/12 10:24:47;;;;;;;9.57;5.45;;;;;;;9.30;44.57;102407.66;4990021;28;20065;-66
2021/04/12 10:31:52;;;;;;;9.65;5.72;;;;;;;8.34;44.76;102413.31;4994134;28;20655;-70
2021/04/12 10:34:34;;;;;;;8.30;5.22;;;;;;;8.12;46.83;102413.31;5001133;28;20056;-69
2021/04/12 10:37:29;;;;;;;12.43;5.45;;;;;;;8.47;46.48;102402.75;5034889;28;20057;-70
2021/04/12 10:40:21;;;;;;;14.10;6.18;;;;;;;8.64;47.17;102398.00;5034795;28;20050;-69
2021/04/12 10:47:23;;;;;;;10.43;4.63;;;;;;;8.85;43.00;102394.38;5016782;28;20057;-71
2021/04/12 10:50:00;;;;;;;7.43;4.50;;;;;;;9.13;44.90;102395.13;5017450;28;20061;-68
2021/04/12 10:52:56;;;;;;;8.35;4.40;;;;;;;9.34;41.48;102403.28;5033819;28;20053;-71
2021/04/12 10:55:42;;;;;;;8.75;4.40;;;;;;;8.51;43.27;102401.16;5034771;28;20048;-71
2021/04/12 11:03:15;;;;;;;7.70;2.72;;;;;;;8.19;37.34;102408.47;5034850;28;20481;-75
2021/04/12 11:06:01;;;;;;;6.93;2.70;;;;;;;8.46;37.26;102400.28;5036408;28;20065;-75
2021/04/12 11:08:55;;;;;;;6.90;3.30;;;;;;;8.85;39.96;102397.13;5017734;28;20069;-80
2021/04/12 11:11:22;;;;;;;;;;;;;;;8.97;38.25;102396.94;5016751;28;20053;-78
2021/04/12 11:14:16;;;;;;;7.57;3.42;;;;;;;9.07;39.15;102402.50;5017318;28;19921;-75
2021/04/12 11:16:55;;;;;;;7.47;3.67;;;;;;;9.05;40.62;102401.94;4934763;29;20044;-75
2021/04/12 11:19:33;;;;;;;9.03;3.73;;;;;;;9.57;40.58;102393.81;4934260;29;20066;-77
2021/04/12 11:22:39;;;;;;;7.23;3.97;;;;;;;10.33;43.70;102395.00;4947554;29;20330;-75
2021/04/12 11:25:08;;;;;;;7.25;3.10;;;;;;;9.87;35.27;102396.72;4950769;29;20810;-73
2021/04/12 11:31:50;;;;;;;5.93;3.13;;;;;;;8.79;36.71;102398.16;4933575;29;20454;-70
2021/04/12 11:34:56;;;;;;;6.05;3.40;;;;;;;9.16;38.87;102400.94;4920908;29;20507;-67
2021/04/12 11:37:53;;;;;;;7.32;4.13;;;;;;;9.40;39.70;102415.97;4920018;29;20047;-74
2021/04/12 11:40:27;;;;;;;7.65;3.83;;;;;;;9.71;40.64;102401.31;4933710;29;20059;-73
2021/04/12 11:42:59;;;;;;;8.48;4.05;;;;;;;9.84;40.06;102397.25;4918022;29;20365;-67
2021/04/12 11:50:10;;;;;;;6.40;3.67;;;;;;;10.17;39.21;102403.22;4933492;29;20051;-67
2021/04/12 11:53:03;;;;;;;6.68;3.88;;;;;;;10.13;38.00;102412.28;4945130;28;20548;-68
2021/04/12 11:55:38;;;;;;;8.05;3.83;;;;;;;10.53;40.40;102404.13;5014755;28;20049;-66
2021/04/12 11:58:14;;;;;;;11.77;3.75;;;;;;;10.63;37.67;102400.59;5036301;28;20056;-69
2021/04/12 12:01:20;;;;;;;8.65;3.92;;;;;;;10.16;35.05;102401.53;4927070;29;20056;-68
2021/04/12 12:04:17;;;;;;;7.90;4.10;;;;;;;9.65;35.61;102393.31;4935887;29;20060;-71
2021/04/12 12:07:05;;;;;;;6.47;3.60;;;;;;;9.93;36.56;102409.41;4933317;29;20095;-68
2021/04/12 12:09:43;;;;;;;6.03;3.35;;;;;;;10.20;35.76;102397.16;4933143;29;20404;-72
2021/04/12 12:12:13;;;;;;;12.63;3.55;;;;;;;9.91;35.30;102414.34;4944152;29;20072;-72
2021/04/12 12:19:24;;;;;;;7.18;3.72;;;;;;;10.11;35.83;102397.97;4995710;28;20068;-78
2021/04/12 12:21:56;;;;;;;7.25;4.03;;;;;;;9.89;34.83;102398.09;5015835;28;20075;-72
2021/04/12 12:24:41;;;;;;;6.90;3.58;;;;;;;9.87;34.71;102402.22;5014560;28;20050;-78
2021/04/12 12:27:17;;;;;;;10.20;3.22;;;;;;;10.06;34.27;102390.47;5032113;28;20551;-76
2021/04/12 12:34:31;;;;;;;10.65;3.25;;;;;;;10.28;33.40;102408.75;5032565;28;20049;-71
2021/04/12 12:37:01;;;;;;;7.38;2.88;;;;;;;9.87;32.39;102396.72;5016102;28;20041;-79
2021/04/12 12:39:49;;;;;;;6.97;2.83;;;;;;;10.28;32.90;102389.47;5010558;28;20054;-70
2021/04/12 12:42:33;;;;;;;4.68;2.80;;;;;;;10.53;33.06;102395.88;5014967;28;20049;-64
2021/04/12 12:45:07;;;;;;;5.88;2.85;;;;;;;10.61;33.62;102381.59;5014742;28;20042;-69
2021/04/12 12:47:36;;;;;;;5.75;2.85;;;;;;;10.94;34.47;102386.56;5045384;28;20125;-72
2021/04/12 12:50:07;;;;;;;7.03;3.20;;;;;;;10.84;33.10;102382.97;5047424;28;20061;-79
2021/04/12 12:52:47;;;;;;;7.53;3.00;;;;;;;11.08;33.26;102378.56;5029279;28;20080;-78
2021/04/12 12:55:36;;;;;;;5.13;2.20;;;;;;;11.45;35.25;102378.25;5032932;28;20053;-77
2021/04/12 12:58:12;;;;;;;6.22;3.03;;;;;;;11.56;33.06;102377.94;5031481;28;20060;-74
2021/04/12 13:00:40;;;;;;;7.60;3.20;;;;;;;11.89;32.89;102382.84;5014013;28;20381;-78
2021/04/12 13:03:19;;;;;;;5.53;3.08;;;;;;;12.24;32.30;102388.22;5033040;28;20038;-79
2021/04/12 13:06:20;;;;;;;5.22;2.63;;;;;;;12.04;31.98;102379.22;5002691;28;20079;-78
2021/04/12 13:08:56;;;;;;;8.05;3.15;;;;;;;10.86;34.86;102387.09;5034953;28;20061;-73
2021/04/12 13:11:45;;;;;;;5.72;2.65;;;;;;;11.10;33.44;102376.38;5032200;28;20076;-75
2021/04/12 13:18:41;;;;;;;7.07;2.50;;;;;;;11.47;34.65;102373.28;5049999;28;20045;-77
2021/04/12 13:21:14;;;;;;;5.30;2.80;;;;;;;11.65;34.25;102369.94;5037194;28;20076;-76
2021/04/12 13:23:44;;;;;;;4.90;2.75;;;;;;;11.78;33.18;102372.97;5052217;28;20567;-69
2021/04/12 13:26:30;;;;;;;4.80;2.67;;;;;;;11.75;32.86;102372.69;5053356;28;20499;-75
2021/04/12 13:29:14;;;;;;;6.28;2.70;;;;;;;11.41;32.78;102371.63;5034355;28;20089;-69
2021/04/12 13:31:48;;;;;;;5.72;2.90;;;;;;;10.97;34.26;102385.19;5053357;28;20060;-72
2021/04/12 13:34:21;;;;;;;4.72;2.80;;;;;;;11.49;34.79;102376.59;5053523;28;20049;-67
2021/04/12 13:37:20;;;;;;;6.00;2.72;;;;;;;11.67;33.68;102376.84;5035921;28;20492;-68
2021/04/12 13:40:20;;;;;;;6.38;2.60;;;;;;;11.59;34.28;102376.56;5032829;28;20064;-71
2021/04/12 13:42:51;;;;;;;5.88;2.78;;;;;;;11.87;34.02;102371.25;5035923;28;20041;-66
2021/04/12 13:49:47;;;;;;;4.43;2.30;;;;;;;11.40;34.85;102362.56;5054268;28;20052;-71
2021/04/12 13:52:35;;;;;;;8.15;2.45;;;;;;;11.86;38.75;102358.56;5040021;28;20059;-75
2021/04/12 13:55:12;;;;;;;9.77;2.85;;;;;;;12.16;34.41;102352.91;5040859;28;20037;-72
2021/04/12 13:57:43;;;;;;;6.47;2.42;;;;;;;12.02;34.39;102351.88;5056647;28;20064;-73
2021/04/12 14:00:44;;;;;;;7.65;2.50;;;;;;;12.00;33.99;102358.78;5038218;28;20483;-72
2021/04/12 14:03:21;;;;;;;6.05;2.63;;;;;;;11.24;34.01;102350.69;5036553;28;20074;-73
2021/04/12 14:05:57;;;;;;;6.07;2.50;;;;;;;11.28;34.48;102350.97;5037647;28;20041;-68
2021/04/12 14:08:26;;;;;;;5.70;2.53;;;;;;;10.92;34.97;102346.59;5036975;28;20053;-69
2021/04/12 14:11:17;;;;;;;4.35;2.00;;;;;;;11.11;35.28;102345.75;5038581;28;20044;-76
2021/04/12 14:13:49;;;;;;;6.05;2.28;;;;;;;11.30;35.21;102354.25;5038365;28;20060;-77
2021/04/12 14:16:23;;;;;;;5.90;2.22;;;;;;;11.03;35.11;102346.31;5038365;28;20045;-74
2021/04/12 14:19:25;;;;;;;4.97;1.95;;;;;;;10.90;35.41;102338.59;5020537;28;20228;-70
2021/04/12 14:22:04;;;;;;;5.97;2.42;;;;;;;11.41;34.83;102333.00;4980584;28;20050;-70
2021/04/12 14:24:35;;;;;;;5.20;2.50;;;;;;;11.08;35.28;102335.28;5012683;28;20413;-73
2021/04/12 14:27:08;;;;;;;6.05;2.42;;;;;;;11.10;36.08;102337.75;5013047;28;20050;-78
2021/04/12 14:29:44;;;;;;;4.10;2.20;;;;;;;10.83;36.14;102335.28;5012165;28;20069;-70
2021/04/12 14:32:19;;;;;;;5.50;2.00;;;;;;;10.96;36.05;102336.66;4996660;28;20045;-71
2021/04/12 14:34:59;;;;;;;5.82;2.28;;;;;;;10.93;36.13;102334.47;5012469;28;20050;-68
2021/04/12 14:37:29;;;;;;;10.38;2.75;;;;;;;10.99;36.32;102330.59;4996196;28;20096;-74
2021/04/12 14:40:14;;;;;;;10.10;2.97;;;;;;;10.91;36.44;102336.69;4980494;28;20061;-72
2021/04/12 14:42:50;;;;;;;8.70;2.28;;;;;;;10.97;36.27;102328.13;5013636;28;20054;-71
2021/04/12 14:49:52;;;;;;;3.45;1.65;;;;;;;11.40;36.87;102329.44;5011872;28;20077;-71
2021/04/12 14:52:43;;;;;;;5.18;1.60;;;;;;;11.18;36.23;102332.50;5012196;28;20050;-71
2021/04/12 14:55:22;;;;;;;4.32;1.52;;;;;;;10.92;36.59;102330.88;5012652;28;20045;-69
2021/04/12 14:57:54;;;;;;;6.25;1.60;;;;;;;10.73;37.13;102328.94;5027919;28;20120;-67
2021/04/12 15:05:03;;;;;;;3.63;1.85;;;;;;;11.10;37.81;102319.28;5053125;28;20418;-67
2021/04/12 15:07:54;;;;;;;5.15;1.92;;;;;;;11.17;37.04;102328.09;5036002;28;20056;-71
2021/04/12 15:10:47;;;;;;;;;;;;;;;10.96;37.27;102326.47;5050917;28;20048;-71
2021/04/12 15:13:32;;;;;;;3.05;1.20;;;;;;;10.49;37.80;102331.41;5035569;28;20241;-70
2021/04/12 15:16:20;;;;;;;4.65;1.40;;;;;;;10.38;38.31;102340.75;5051137;28;20041;-68
2021/04/12 15:19:08;;;;;;;3.30;1.45;;;;;;;10.36;38.23;102326.44;5038102;28;20131;-69
2021/04/12 15:21:44;;;;;;;4.28;1.20;;;;;;;10.34;38.23;102345.16;5034993;28;20053;-70
2021/04/12 15:24:27;;;;;;;3.28;1.67;;;;;;;10.59;38.77;102342.44;5034693;28;20064;-71
2021/04/12 15:26:58;;;;;;;4.60;1.40;;;;;;;10.48;39.22;102338.00;5035872;28;20048;-71
2021/04/12 15:29:31;;;;;;;3.53;1.50;;;;;;;10.73;39.21;102343.56;5052861;28;20049;-66
2021/04/12 15:32:12;;;;;;;3.60;1.40;;;;;;;10.41;38.92;102347.66;5035234;28;20049;-70
2021/04/12 15:34:43;;;;;;;5.22;1.58;;;;;;;10.31;40.04;102356.72;5052237;28;20060;-74
2021/04/12 15:37:23;;;;;;;4.47;1.45;;;;;;;10.31;39.72;102351.22;5036578;28;20064;-69
2021/04/12 15:40:14;;;;;;;6.82;1.83;;;;;;;10.39;40.23;102353.41;5035928;28;20071;-67
2021/04/12 15:42:51;;;;;;;5.32;1.40;;;;;;;10.08;41.62;102360.78;5035514;28;20041;-63
2021/04/12 15:45:41;;;;;;;4.28;1.48;;;;;;;10.32;42.17;102372.13;5038135;28;20377;-70
2021/04/12 15:48:19;;;;;;;7.53;1.60;;;;;;;9.83;43.29;102368.91;5052295;28;20049;-72